Time;durP1;ratioP1;P1;durP2;ratioP2;P2;SDS_P1;SDS_P2;PMS_P1;PMS_P2;Temp;Humidity;BMP_temperature;BMP_pressure;BME280_temperature;BME280_humidity;BME280_pressure;Samples;Min_cycle;Max_cycle;Signal;HPM_P1;HPM_P2
2021/12/30 00:00:14;;;;;;;38.25;7.88;;;;;;;11.95;100.00;101007.81;5251210;28;20370;-73
2021/12/30 00:02:45;;;;;;;37.03;7.85;;;;;;;11.86;100.00;101014.72;5250163;28;20395;-73
2021/12/30 00:05:16;;;;;;;32.83;8.70;;;;;;;11.90;100.00;101020.53;5250717;28;20024;-73
2021/12/30 00:07:48;;;;;;;33.15;7.93;;;;;;;11.91;100.00;101016.94;5250088;28;20039;-73
2021/12/30 00:10:19;;;;;;;26.98;8.40;;;;;;;11.93;100.00;101017.63;5252118;28;20059;-73
2021/12/30 00:12:52;;;;;;;33.72;9.35;;;;;;;11.96;100.00;101016.53;5250729;28;20025;-73
2021/12/30 00:15:24;;;;;;;43.63;9.35;;;;;;;12.00;100.00;101024.00;5248062;28;20066;-73
2021/12/30 00:17:55;;;;;;;30.98;9.55;;;;;;;11.99;100.00;101018.88;5232437;28;20045;-73
2021/12/30 00:20:27;;;;;;;33.70;8.90;;;;;;;12.01;100.00;101019.56;5251695;28;20037;-73
2021/12/30 00:23:02;;;;;;;33.15;8.90;;;;;;;12.01;100.00;101009.06;5250964;28;20068;-73
2021/12/30 00:25:40;;;;;;;30.27;9.45;;;;;;;12.03;100.00;101020.28;5251493;28;20120;-73
2021/12/30 00:28:14;;;;;;;28.45;8.70;;;;;;;12.05;100.00;101026.25;5250956;28;20055;-73
2021/12/30 00:30:46;;;;;;;32.03;8.85;;;;;;;12.01;100.00;101016.94;5250621;28;20033;-73
2021/12/30 00:33:19;;;;;;;34.28;9.20;;;;;;;11.99;100.00;101000.50;5251556;28;20017;-73
2021/12/30 00:35:51;;;;;;;34.55;10.65;;;;;;;12.09;100.00;101014.50;5249857;28;20041;-73
2021/12/30 00:38:22;;;;;;;37.15;9.43;;;;;;;12.08;100.00;101029.41;5250211;28;20380;-73
2021/12/30 00:40:54;;;;;;;36.33;10.15;;;;;;;12.04;100.00;101027.19;5250796;28;20173;-73
2021/12/30 00:43:25;;;;;;;33.92;9.27;;;;;;;12.08;100.00;101037.28;5252023;28;20051;-73
2021/12/30 00:45:57;;;;;;;38.67;9.35;;;;;;;12.13;100.00;101044.78;5250862;28;20039;-73
2021/12/30 00:48:28;;;;;;;30.13;8.32;;;;;;;12.15;100.00;101041.03;5250359;28;20482;-73
2021/12/30 00:51:00;;;;;;;28.88;8.13;;;;;;;12.14;100.00;101044.63;5252194;28;20032;-73
2021/12/30 00:53:32;;;;;;;31.92;8.98;;;;;;;12.18;100.00;101040.75;5250183;28;20060;-73
2021/12/30 00:56:03;;;;;;;36.22;8.88;;;;;;;12.19;100.00;101036.34;5251197;28;20040;-73
2021/12/30 00:58:34;;;;;;;33.78;7.68;;;;;;;12.15;100.00;101043.66;5251306;28;20025;-73
2021/12/30 01:01:06;;;;;;;33.53;9.10;;;;;;;12.23;100.00;101045.59;5249193;28;20025;-73
2021/12/30 01:03:37;;;;;;;33.40;8.10;;;;;;;12.25;100.00;101050.72;5251534;28;20063;-73
2021/12/30 01:06:08;;;;;;;36.53;8.43;;;;;;;12.25;100.00;101042.84;5248936;28;20163;-73
2021/12/30 01:08:40;;;;;;;30.23;8.10;;;;;;;12.30;100.00;101044.09;5250911;28;20025;-73
2021/12/30 01:11:12;;;;;;;33.15;8.20;;;;;;;12.28;100.00;101039.97;5249716;28;20025;-74
2021/12/30 01:13:45;;;;;;;32.20;7.22;;;;;;;12.30;100.00;101048.50;5249590;28;20123;-73
2021/12/30 01:16:18;;;;;;;32.03;8.07;;;;;;;12.27;100.00;101039.09;5250654;28;20119;-73
2021/12/30 01:19:00;;;;;;;31.90;7.35;;;;;;;12.37;100.00;101054.88;5248347;28;20229;-73
2021/12/30 01:21:33;;;;;;;32.25;6.40;;;;;;;12.37;100.00;101060.97;5251576;28;20470;-73
2021/12/30 01:24:05;;;;;;;36.15;7.82;;;;;;;12.36;100.00;101055.88;5247617;28;20033;-73
2021/12/30 01:26:36;;;;;;;30.55;7.63;;;;;;;12.44;100.00;101063.91;5249137;28;20106;-73
2021/12/30 01:29:07;;;;;;;30.80;7.22;;;;;;;12.48;100.00;101059.19;5250320;28;20029;-73
2021/12/30 01:31:39;;;;;;;34.38;7.20;;;;;;;12.53;100.00;101062.22;5251400;28;20116;-73
2021/12/30 01:34:11;;;;;;;26.00;8.07;;;;;;;12.52;100.00;101063.22;5250442;28;20025;-73
2021/12/30 01:36:43;;;;;;;28.90;7.53;;;;;;;12.55;100.00;101053.25;5249652;28;20119;-73
2021/12/30 01:39:17;;;;;;;34.47;8.15;;;;;;;12.60;100.00;101058.91;5230708;28;20539;-73
2021/12/30 01:41:50;;;;;;;31.13;7.75;;;;;;;12.62;100.00;101066.69;5250393;28;20032;-73
2021/12/30 01:44:22;;;;;;;34.22;8.68;;;;;;;12.66;100.00;101062.81;5249728;28;20037;-73
2021/12/30 01:46:54;;;;;;;22.92;7.55;;;;;;;12.66;100.00;101053.13;5249728;28;20459;-73
2021/12/30 01:49:26;;;;;;;34.60;8.23;;;;;;;12.68;100.00;101047.72;5250333;28;20029;-73
2021/12/30 01:52:01;;;;;;;31.13;8.67;;;;;;;12.76;100.00;101054.91;5251272;28;20490;-73
2021/12/30 01:54:34;;;;;;;31.20;7.95;;;;;;;12.72;100.00;101059.59;5249128;28;20119;-73
2021/12/30 01:57:06;;;;;;;36.55;9.70;;;;;;;12.76;100.00;101060.97;5249897;28;20040;-73
2021/12/30 01:59:37;;;;;;;27.73;8.77;;;;;;;12.79;100.00;101052.81;5250623;28;20025;-73
2021/12/30 02:02:08;;;;;;;25.80;8.45;;;;;;;12.78;100.00;101050.34;5250366;28;20024;-73
2021/12/30 02:04:39;;;;;;;28.25;8.35;;;;;;;12.81;100.00;101050.91;5249290;28;20124;-73
2021/12/30 02:07:11;;;;;;;24.58;7.55;;;;;;;12.86;100.00;101043.41;5248185;28;20037;-73
2021/12/30 02:09:42;;;;;;;27.58;8.10;;;;;;;12.87;100.00;101047.69;5250860;28;20048;-73
2021/12/30 02:12:13;;;;;;;29.77;8.20;;;;;;;12.88;100.00;101044.13;5226479;28;20506;-73
2021/12/30 02:14:45;;;;;;;26.30;8.23;;;;;;;12.90;100.00;101051.84;5248292;28;20131;-73
2021/12/30 02:17:19;;;;;;;26.77;8.93;;;;;;;12.97;100.00;101060.84;5226026;28;20124;-74
2021/12/30 02:19:50;;;;;;;27.63;8.32;;;;;;;12.94;100.00;101052.41;5249308;28;20028;-73
2021/12/30 02:22:22;;;;;;;21.85;8.32;;;;;;;12.96;100.00;101061.81;5231672;28;20032;-73
2021/12/30 02:24:53;;;;;;;31.33;8.20;;;;;;;13.00;100.00;101059.75;5248460;28;20040;-73
2021/12/30 02:27:26;;;;;;;32.80;8.60;;;;;;;12.97;100.00;101062.66;5246808;28;20025;-73
2021/12/30 02:29:58;;;;;;;26.30;8.77;;;;;;;13.02;100.00;101060.41;5230977;28;20372;-73
2021/12/30 02:32:30;;;;;;;23.88;7.72;;;;;;;13.01;100.00;101064.84;5249027;28;20041;-73
2021/12/30 02:35:01;;;;;;;25.92;8.25;;;;;;;13.02;100.00;101055.97;5249145;28;20025;-73
2021/12/30 02:37:32;;;;;;;27.88;7.85;;;;;;;13.03;100.00;101062.94;5250479;28;20064;-73
2021/12/30 02:40:05;;;;;;;27.08;7.13;;;;;;;13.01;100.00;101056.97;5247698;28;20049;-73
2021/12/30 02:42:37;;;;;;;21.88;7.80;;;;;;;13.06;100.00;101065.25;5250133;28;20055;-73
2021/12/30 02:45:08;;;;;;;23.95;7.32;;;;;;;13.07;100.00;101063.47;5249773;28;20024;-73
2021/12/30 02:47:40;;;;;;;20.33;6.35;;;;;;;13.06;100.00;101057.34;5224869;28;20036;-73
2021/12/30 02:50:11;;;;;;;21.80;7.35;;;;;;;13.06;100.00;101051.28;5228130;28;20029;-73
2021/12/30 02:52:43;;;;;;;22.98;7.57;;;;;;;13.09;100.00;101061.53;5250339;28;20497;-73
2021/12/30 02:55:14;;;;;;;19.75;6.70;;;;;;;13.08;100.00;101059.88;5248964;28;20060;-73
2021/12/30 02:57:45;;;;;;;17.40;5.88;;;;;;;13.09;100.00;101059.72;5251753;28;20466;-73
2021/12/30 03:00:17;;;;;;;19.45;6.60;;;;;;;13.09;100.00;101066.78;5253508;28;20112;-73
2021/12/30 03:02:48;;;;;;;17.85;6.07;;;;;;;13.13;100.00;101068.16;5251723;28;20032;-73
2021/12/30 03:05:20;;;;;;;16.60;6.55;;;;;;;13.15;100.00;101066.22;5251096;28;20141;-73
2021/12/30 03:07:53;;;;;;;17.23;6.07;;;;;;;13.13;100.00;101076.88;5250883;28;20025;-73
2021/12/30 03:10:29;;;;;;;18.38;5.93;;;;;;;13.14;100.00;101070.66;5250803;28;20190;-73
2021/12/30 03:13:08;;;;;;;18.45;6.10;;;;;;;13.19;100.00;101070.22;5254036;28;20099;-73
2021/12/30 03:15:41;;;;;;;16.33;6.65;;;;;;;13.10;100.00;101073.69;5252580;28;21218;-73
2021/12/30 03:18:13;;;;;;;14.63;6.35;;;;;;;13.18;100.00;101078.25;5250307;28;20140;-73
2021/12/30 03:20:45;;;;;;;11.63;6.20;;;;;;;13.18;100.00;101081.69;5232700;28;20052;-73
2021/12/30 03:23:16;;;;;;;9.60;5.90;;;;;;;13.17;100.00;101073.97;5254660;28;20024;-73
2021/12/30 03:25:48;;;;;;;12.65;5.90;;;;;;;13.15;100.00;101071.50;5233430;28;20032;-73
2021/12/30 03:28:19;;;;;;;14.85;5.68;;;;;;;13.21;100.00;101080.59;5253748;28;20025;-73
2021/12/30 03:30:51;;;;;;;13.13;5.50;;;;;;;13.18;100.00;101078.25;5253196;28;20116;-73
2021/12/30 03:33:23;;;;;;;11.18;5.25;;;;;;;13.20;100.00;101074.50;5250250;28;20018;-74
2021/12/30 03:35:55;;;;;;;9.52;4.85;;;;;;;13.18;100.00;101071.19;5251695;28;20391;-73
2021/12/30 03:38:31;;;;;;;7.10;4.50;;;;;;;13.25;100.00;101077.56;5252101;28;20378;-73
2021/12/30 03:41:04;;;;;;;9.55;4.88;;;;;;;13.25;100.00;101074.94;5251513;28;20117;-73
2021/12/30 03:43:36;;;;;;;8.65;5.40;;;;;;;13.28;100.00;101081.72;5234083;28;20029;-73
2021/12/30 03:46:08;;;;;;;7.68;4.28;;;;;;;13.32;100.00;101072.56;5250842;28;20091;-73
2021/12/30 03:48:43;;;;;;;6.57;4.32;;;;;;;13.34;100.00;101078.53;5251793;28;20265;-74
2021/12/30 03:51:21;;;;;;;7.15;4.75;;;;;;;13.37;100.00;101073.81;5251742;28;20402;-74
2021/12/30 03:53:56;;;;;;;10.38;5.22;;;;;;;13.38;100.00;101075.47;5251723;28;20048;-73
2021/12/30 03:56:29;;;;;;;8.80;5.20;;;;;;;13.39;100.00;101071.88;5253560;28;20032;-73
2021/12/30 03:59:01;;;;;;;7.43;5.50;;;;;;;13.42;100.00;101077.84;5252602;28;20045;-73
2021/12/30 04:01:32;;;;;;;8.20;6.45;;;;;;;13.44;100.00;101076.69;5248868;28;20052;-74
2021/12/30 04:04:04;;;;;;;9.55;6.47;;;;;;;13.48;100.00;101079.88;5252998;28;20102;-73
2021/12/30 04:06:36;;;;;;;10.60;7.78;;;;;;;13.49;100.00;101078.91;5232253;28;20068;-73
2021/12/30 04:09:07;;;;;;;9.93;8.35;;;;;;;13.53;100.00;101078.47;5251355;28;20028;-73
2021/12/30 04:11:39;;;;;;;10.13;8.05;;;;;;;13.59;100.00;101075.25;5251820;28;20025;-74
2021/12/30 04:14:10;;;;;;;12.13;9.68;;;;;;;13.57;100.00;101074.59;5253100;28;20215;-73
2021/12/30 04:16:42;;;;;;;11.90;10.43;;;;;;;13.61;100.00;101078.59;5250401;28;20032;-74
2021/12/30 04:19:13;;;;;;;13.75;11.38;;;;;;;13.65;100.00;101084.41;5250867;28;20102;-73
2021/12/30 04:21:44;;;;;;;15.13;11.60;;;;;;;13.68;100.00;101092.00;5251460;28;20035;-74
2021/12/30 04:24:16;;;;;;;14.07;11.48;;;;;;;13.72;100.00;101100.47;5250589;28;20012;-73
2021/12/30 04:26:47;;;;;;;15.25;13.55;;;;;;;13.69;100.00;101096.31;5249321;28;20402;-73
2021/12/30 04:29:19;;;;;;;15.85;14.10;;;;;;;13.71;100.00;101085.63;5247148;28;20029;-74
2021/12/30 04:31:51;;;;;;;17.40;14.50;;;;;;;13.76;100.00;101101.81;5253092;28;20027;-73
2021/12/30 04:34:22;;;;;;;15.88;14.18;;;;;;;13.80;100.00;101104.03;5233092;28;20033;-74
2021/12/30 04:36:58;;;;;;;16.52;14.82;;;;;;;13.78;100.00;101095.41;5252686;28;20499;-74
2021/12/30 04:39:30;;;;;;;14.82;13.35;;;;;;;13.82;100.00;101099.41;5250243;28;20068;-74
2021/12/30 04:42:02;;;;;;;16.25;14.55;;;;;;;13.85;100.00;101093.88;5250855;28;20025;-74
2021/12/30 04:44:33;;;;;;;17.10;15.40;;;;;;;13.83;100.00;101097.66;5252433;28;20032;-74
2021/12/30 04:47:06;;;;;;;19.00;17.05;;;;;;;13.90;100.00;101098.69;5250098;28;20049;-74
2021/12/30 04:49:37;;;;;;;18.02;16.35;;;;;;;13.93;100.00;101108.13;5250543;28;20122;-74
2021/12/30 04:52:09;;;;;;;18.08;16.27;;;;;;;13.92;100.00;101109.94;5251860;28;20517;-74
2021/12/30 04:54:40;;;;;;;19.02;17.23;;;;;;;13.87;100.00;101096.38;5252206;28;20111;-74
2021/12/30 04:57:11;;;;;;;19.83;17.92;;;;;;;14.01;100.00;101110.84;5231472;28;20296;-74
2021/12/30 04:59:43;;;;;;;18.15;16.50;;;;;;;14.01;100.00;101105.59;5251276;28;20433;-73
2021/12/30 05:02:14;;;;;;;17.65;16.10;;;;;;;14.00;100.00;101103.94;5250711;28;20029;-74
2021/12/30 05:04:46;;;;;;;17.05;15.55;;;;;;;14.04;100.00;101115.84;5249233;28;20090;-74
2021/12/30 05:07:17;;;;;;;18.45;16.67;;;;;;;14.02;100.00;101113.34;5250247;28;20104;-72
2021/12/30 05:09:48;;;;;;;18.50;16.60;;;;;;;14.05;100.00;101110.44;5233839;28;20024;-72
2021/12/30 05:12:19;;;;;;;17.25;15.65;;;;;;;14.01;100.00;101111.69;5249590;28;20512;-72
2021/12/30 05:14:51;;;;;;;16.55;14.95;;;;;;;14.07;100.00;101118.19;5251243;28;20505;-72
2021/12/30 05:17:23;;;;;;;15.25;13.82;;;;;;;14.05;100.00;101113.06;5248591;28;20529;-72
2021/12/30 05:19:54;;;;;;;13.85;12.50;;;;;;;14.06;100.00;101127.06;5250165;28;20032;-72
2021/12/30 05:22:25;;;;;;;22.00;11.82;;;;;;;14.07;100.00;101129.53;5250166;28;20029;-72
2021/12/30 05:24:57;;;;;;;12.10;11.00;;;;;;;14.10;100.00;101137.16;5251793;28;20111;-73
2021/12/30 05:27:28;;;;;;;10.98;9.88;;;;;;;14.10;100.00;101137.16;5251417;28;20045;-72
2021/12/30 05:29:59;;;;;;;10.13;9.27;;;;;;;14.08;100.00;101133.84;5250378;28;20043;-73
2021/12/30 05:32:31;;;;;;;9.85;8.95;;;;;;;14.12;100.00;101151.00;5249670;28;20036;-72
2021/12/30 05:35:04;;;;;;;9.57;8.68;;;;;;;14.19;100.00;101156.53;5230750;28;20052;-72
2021/12/30 05:37:36;;;;;;;9.02;8.25;;;;;;;14.19;100.00;101148.63;5251688;28;20039;-73
2021/12/30 05:40:10;;;;;;;8.02;7.40;;;;;;;14.22;100.00;101150.97;5250731;28;20093;-72
2021/12/30 05:42:42;;;;;;;8.40;7.70;;;;;;;14.18;100.00;101154.88;5250642;28;20037;-72
2021/12/30 05:45:15;;;;;;;7.75;6.88;;;;;;;14.22;100.00;101168.59;5245915;28;20143;-73
2021/12/30 05:47:48;;;;;;;7.30;6.68;;;;;;;14.19;100.00;101164.44;5249945;28;20035;-73
2021/12/30 05:50:26;;;;;;;7.00;6.35;;;;;;;14.22;100.00;101174.69;5249723;28;20063;-72
2021/12/30 05:52:57;;;;;;;6.72;6.18;;;;;;;14.26;100.00;101178.69;5250120;28;20029;-73
2021/12/30 05:55:29;;;;;;;8.05;7.35;;;;;;;14.26;100.00;101175.22;5247458;28;20040;-73
2021/12/30 05:58:00;;;;;;;9.38;8.57;;;;;;;14.26;100.00;101172.59;5249820;28;20021;-72
2021/12/30 06:00:32;;;;;;;9.95;9.05;;;;;;;14.26;100.00;101183.13;5227363;28;20039;-73
2021/12/30 06:03:03;;;;;;;11.05;10.05;;;;;;;14.23;100.00;101178.97;5249642;28;20036;-72
2021/12/30 06:05:35;;;;;;;11.35;10.35;;;;;;;14.24;100.00;101167.44;5251529;28;20055;-73
2021/12/30 06:08:06;;;;;;;13.05;11.75;;;;;;;14.26;100.00;101164.69;5250833;28;20033;-72
2021/12/30 06:10:37;;;;;;;12.48;11.38;;;;;;;14.26;100.00;101162.88;5249158;28;20021;-72
2021/12/30 06:13:10;;;;;;;11.73;10.68;;;;;;;14.28;100.00;101160.94;5250940;28;20029;-72
2021/12/30 06:15:41;;;;;;;11.70;10.70;;;;;;;14.25;100.00;101160.41;5232087;28;20029;-73
2021/12/30 06:18:12;;;;;;;11.48;10.50;;;;;;;14.16;100.00;101162.09;5251073;28;20655;-72
2021/12/30 06:20:44;;;;;;;10.02;9.23;;;;;;;14.27;100.00;101185.63;5249225;28;20044;-72
2021/12/30 06:23:15;;;;;;;10.18;9.38;;;;;;;14.25;100.00;101181.47;5229783;28;20029;-72
2021/12/30 06:25:47;;;;;;;9.20;8.40;;;;;;;14.20;100.00;101162.63;5226649;28;20025;-72
2021/12/30 06:28:18;;;;;;;8.40;7.57;;;;;;;14.23;100.00;101167.63;5248471;28;20444;-73
2021/12/30 06:30:49;;;;;;;8.30;7.00;;;;;;;14.28;100.00;101178.53;5248838;28;20495;-74
2021/12/30 06:33:20;;;;;;;7.28;6.63;;;;;;;14.28;100.00;101168.84;5254343;28;20064;-74
2021/12/30 06:35:52;;;;;;;7.22;6.55;;;;;;;14.31;100.00;101165.06;5235716;28;20028;-74
2021/12/30 06:38:23;;;;;;;7.15;6.55;;;;;;;14.29;100.00;101169.69;5253887;28;20068;-73
2021/12/30 06:40:54;;;;;;;7.20;6.50;;;;;;;14.26;100.00;101168.16;5253767;28;20514;-73
2021/12/30 06:43:26;;;;;;;7.22;6.63;;;;;;;14.28;100.00;101171.47;5254224;28;20060;-73
2021/12/30 06:45:57;;;;;;;7.15;6.45;;;;;;;14.31;100.00;101175.59;5253181;28;20543;-73
2021/12/30 06:48:28;;;;;;;6.80;6.20;;;;;;;14.30;100.00;101180.06;5251986;28;20367;-73
2021/12/30 06:51:00;;;;;;;6.45;5.85;;;;;;;14.34;100.00;101191.97;5235001;28;20119;-73
2021/12/30 06:53:34;;;;;;;6.47;5.78;;;;;;;14.34;100.00;101189.34;5253055;28;20071;-72
2021/12/30 06:56:05;;;;;;;5.85;5.35;;;;;;;14.28;100.00;101191.72;5253838;28;20660;-73
2021/12/30 06:58:37;;;;;;;5.35;4.85;;;;;;;14.29;100.00;101193.41;5253861;28;20112;-73
2021/12/30 07:01:08;;;;;;;5.65;5.05;;;;;;;14.30;100.00;101209.03;5253570;28;20032;-73
2021/12/30 07:03:40;;;;;;;5.63;4.97;;;;;;;14.33;100.00;101211.41;5252243;28;20126;-72
2021/12/30 07:06:11;;;;;;;4.95;4.45;;;;;;;14.29;100.00;101199.50;5253425;28;20029;-73
2021/12/30 07:08:42;;;;;;;5.72;5.07;;;;;;;14.32;100.00;101222.94;5251505;28;20037;-73
2021/12/30 07:11:14;;;;;;;7.18;6.07;;;;;;;14.35;100.00;101212.06;5252154;28;20224;-73
2021/12/30 07:13:45;;;;;;;7.38;5.93;;;;;;;14.28;100.00;101211.00;5251188;28;20029;-73
2021/12/30 07:16:16;;;;;;;7.93;7.13;;;;;;;14.30;100.00;101224.03;5254079;28;20041;-73
2021/12/30 07:18:48;;;;;;;8.15;6.78;;;;;;;14.34;100.00;101220.13;5252844;28;20486;-73
2021/12/30 07:21:20;;;;;;;8.05;7.35;;;;;;;14.33;100.00;101229.03;5251592;28;20405;-73
2021/12/30 07:23:52;;;;;;;8.40;7.25;;;;;;;14.31;100.00;101226.50;5250558;28;20155;-74
2021/12/30 07:26:23;;;;;;;9.32;7.88;;;;;;;14.34;100.00;101244.69;5252124;28;20479;-74
2021/12/30 07:28:54;;;;;;;9.48;8.35;;;;;;;14.39;100.00;101243.41;5245362;28;20040;-74
2021/12/30 07:31:26;;;;;;;9.02;8.18;;;;;;;14.32;100.00;101241.38;5252734;28;20036;-74
2021/12/30 07:33:57;;;;;;;8.45;7.65;;;;;;;14.31;100.00;101250.22;5253745;28;20366;-74
2021/12/30 07:36:29;;;;;;;9.98;7.35;;;;;;;14.39;100.00;101246.06;5250540;28;20612;-74
2021/12/30 07:39:00;;;;;;;10.50;7.63;;;;;;;14.33;100.00;101247.47;5253712;28;20147;-74
2021/12/30 07:41:32;;;;;;;8.98;6.95;;;;;;;14.33;100.00;101250.94;5251467;28;20191;-74
2021/12/30 07:44:04;;;;;;;6.35;5.68;;;;;;;14.37;100.00;101254.13;5250369;28;20075;-74
2021/12/30 07:46:35;;;;;;;7.88;6.43;;;;;;;14.35;100.00;101245.50;5251084;28;20134;-73
2021/12/30 07:49:06;;;;;;;7.10;6.40;;;;;;;14.41;100.00;101262.56;5235590;28;20591;-74
2021/12/30 07:51:38;;;;;;;7.22;6.32;;;;;;;14.43;100.00;101255.31;5252626;28;20043;-74
2021/12/30 07:54:09;;;;;;;6.72;6.13;;;;;;;14.41;100.00;101260.75;5248380;28;20029;-74
2021/12/30 07:56:40;;;;;;;7.20;6.50;;;;;;;14.43;100.00;101260.59;5226634;28;20037;-74
2021/12/30 07:59:12;;;;;;;7.70;6.18;;;;;;;14.42;100.00;101266.84;5253547;28;20067;-74
2021/12/30 08:01:43;;;;;;;6.10;5.50;;;;;;;14.43;100.00;101258.78;5248542;28;20048;-74
2021/12/30 08:04:14;;;;;;;7.50;6.53;;;;;;;14.43;100.00;101240.34;5253066;28;20025;-74
2021/12/30 08:06:46;;;;;;;10.48;9.48;;;;;;;14.45;100.00;101246.31;5252931;28;20479;-74
2021/12/30 08:09:17;;;;;;;7.82;5.60;;;;;;;14.41;100.00;101252.84;5254074;28;20033;-75
2021/12/30 08:11:48;;;;;;;6.85;6.15;;;;;;;14.37;100.00;101254.13;5254009;28;20375;-73
2021/12/30 08:14:20;;;;;;;5.68;4.80;;;;;;;14.41;100.00;101262.56;5251453;28;20037;-73
2021/12/30 08:16:51;;;;;;;5.05;4.15;;;;;;;14.38;100.00;101276.03;5249236;28;20040;-74
2021/12/30 08:19:22;;;;;;;7.13;4.75;;;;;;;14.36;100.00;101277.00;5251487;28;20041;-73
2021/12/30 08:21:53;;;;;;;5.95;4.80;;;;;;;14.39;100.00;101282.94;5251083;28;20028;-73
2021/12/30 08:24:27;;;;;;;5.85;4.80;;;;;;;14.36;100.00;101287.56;5250144;28;20193;-73
2021/12/30 08:27:01;;;;;;;;;;;;;;;14.83;100.00;101287.50;5250955;28;20117;-74
2021/12/30 08:29:33;;;;;;;4.20;2.55;;;;;;;14.42;100.00;101282.66;5246907;28;20506;-74
2021/12/30 08:32:07;;;;;;;3.95;2.70;;;;;;;14.42;100.00;101274.75;5250797;28;20017;-74
2021/12/30 08:34:40;;;;;;;2.90;2.53;;;;;;;14.44;100.00;101286.00;5250369;28;20031;-74
2021/12/30 08:37:13;;;;;;;5.78;2.80;;;;;;;14.44;100.00;101284.19;5251757;28;20032;-74
2021/12/30 08:39:44;;;;;;;4.60;2.80;;;;;;;14.43;100.00;101286.97;5229090;28;20020;-73
2021/12/30 08:42:21;;;;;;;7.50;3.33;;;;;;;14.45;100.00;101285.84;5250353;28;20025;-74
2021/12/30 08:44:55;;;;;;;5.38;3.42;;;;;;;14.47;100.00;101288.34;5250214;28;20163;-74
2021/12/30 08:47:30;;;;;;;4.95;3.17;;;;;;;14.43;100.00;101300.13;5251998;28;20264;-74
2021/12/30 08:50:05;;;;;;;4.30;3.42;;;;;;;14.46;100.00;101303.31;5251625;28;20039;-74
2021/12/30 08:52:37;;;;;;;4.72;3.60;;;;;;;14.45;100.00;101311.38;5249132;28;20538;-74
2021/12/30 08:55:10;;;;;;;5.43;3.83;;;;;;;14.46;100.00;101315.69;5250410;28;20568;-74
2021/12/30 08:57:42;;;;;;;4.67;3.50;;;;;;;14.52;100.00;101334.44;5251980;28;20028;-74
2021/12/30 09:00:23;;;;;;;4.88;3.80;;;;;;;14.56;100.00;101342.88;5252255;28;20287;-74
2021/12/30 09:02:56;;;;;;;6.63;4.13;;;;;;;14.58;100.00;101340.91;5251817;28;20467;-74
2021/12/30 09:05:27;;;;;;;;;;;;;;;15.05;100.00;101332.97;5254597;28;20444;-73
2021/12/30 09:07:59;;;;;;;8.47;4.77;;;;;;;14.66;100.00;101334.91;5252105;28;19913;-73
2021/12/30 09:10:35;;;;;;;5.65;4.40;;;;;;;14.63;100.00;101320.25;5249611;28;20117;-73
2021/12/30 09:13:08;;;;;;;6.25;3.97;;;;;;;14.68;100.00;101330.34;5249122;28;20024;-73
2021/12/30 09:15:40;;;;;;;4.47;3.88;;;;;;;14.68;100.00;101325.91;5248555;28;20403;-73
2021/12/30 09:18:12;;;;;;;8.75;4.40;;;;;;;14.73;100.00;101322.81;5250921;28;20048;-73
2021/12/30 09:20:43;;;;;;;5.88;4.00;;;;;;;14.80;100.00;101329.19;5249336;28;20040;-73
2021/12/30 09:23:15;;;;;;;5.38;3.67;;;;;;;14.82;100.00;101327.25;5247639;28;20474;-73
2021/12/30 09:25:47;;;;;;;7.22;3.60;;;;;;;14.88;100.00;101336.38;5250169;28;20036;-73
2021/12/30 09:28:18;;;;;;;5.90;3.33;;;;;;;14.93;100.00;101339.41;5249890;28;20561;-77
2021/12/30 09:30:50;;;;;;;8.70;3.45;;;;;;;14.91;100.00;101322.88;5249015;28;20035;-72
2021/12/30 09:33:22;;;;;;;6.90;3.25;;;;;;;14.96;100.00;101339.91;5234735;28;20410;-72
2021/12/30 09:35:53;;;;;;;6.88;3.40;;;;;;;14.99;100.00;101359.91;5248522;28;20471;-72
2021/12/30 09:38:24;;;;;;;5.70;3.33;;;;;;;14.95;100.00;101359.38;5249461;28;20308;-73
2021/12/30 09:40:55;;;;;;;8.95;2.92;;;;;;;14.96;100.00;101353.13;5250230;28;20035;-73
2021/12/30 09:43:27;;;;;;;7.40;3.38;;;;;;;14.98;100.00;101361.72;5249145;28;20075;-73
2021/12/30 09:45:58;;;;;;;9.00;3.10;;;;;;;15.06;100.00;101363.63;5250047;28;20040;-73
2021/12/30 09:48:30;;;;;;;5.72;2.50;;;;;;;15.05;100.00;101367.25;5249181;28;20056;-73
2021/12/30 09:51:01;;;;;;;8.85;3.15;;;;;;;15.03;100.00;101371.84;5250766;28;20033;-73
2021/12/30 09:53:32;;;;;;;8.05;3.10;;;;;;;15.02;100.00;101368.38;5248339;28;20394;-73
2021/12/30 09:56:04;;;;;;;9.23;2.88;;;;;;;15.04;100.00;101381.44;5247971;28;20146;-73
2021/12/30 09:58:36;;;;;;;12.23;4.60;;;;;;;15.06;100.00;101375.03;5241772;28;20268;-73
2021/12/30 10:01:07;;;;;;;10.77;4.05;;;;;;;15.09;100.00;101372.09;5247995;28;20029;-73
2021/12/30 10:03:38;;;;;;;9.93;3.40;;;;;;;15.09;100.00;101374.72;5249315;28;20032;-73
2021/12/30 10:06:13;;;;;;;11.70;3.63;;;;;;;15.10;100.00;101375.56;5244534;28;20115;-73
2021/12/30 10:08:59;;;;;;;8.70;3.30;;;;;;;15.18;100.00;101373.00;5244569;28;20064;-73
2021/12/30 10:11:45;;;;;;;7.15;3.53;;;;;;;15.21;100.00;101359.53;5225750;28;20025;-73
2021/12/30 10:14:32;;;;;;;10.88;3.20;;;;;;;15.23;100.00;101372.59;5245499;28;20479;-73
2021/12/30 10:17:21;;;;;;;9.80;2.85;;;;;;;15.25;100.00;101376.72;5248379;28;20043;-73
2021/12/30 10:19:55;;;;;;;9.52;3.13;;;;;;;15.14;100.00;101369.00;5227801;28;20398;-73
2021/12/30 10:22:26;;;;;;;11.43;3.00;;;;;;;15.14;100.00;101376.09;5247564;28;20107;-73
2021/12/30 10:24:57;;;;;;;10.40;3.30;;;;;;;15.14;100.00;101376.94;5249561;28;20051;-73
2021/12/30 10:27:34;;;;;;;9.55;3.15;;;;;;;15.19;100.00;101372.06;5249291;28;20426;-73
2021/12/30 10:30:06;;;;;;;7.75;3.50;;;;;;;15.14;100.00;101369.00;5226144;28;20128;-73
2021/12/30 10:32:37;;;;;;;9.65;3.45;;;;;;;15.15;100.00;101370.66;5246105;28;20103;-73
2021/12/30 10:35:15;;;;;;;10.65;3.33;;;;;;;15.24;100.00;101369.78;5248566;28;20071;-73
2021/12/30 10:37:46;;;;;;;9.07;3.35;;;;;;;15.17;100.00;101370.53;5248732;28;20044;-73
2021/12/30 10:40:30;;;;;;;16.45;4.10;;;;;;;15.30;100.00;101368.34;5248142;28;20025;-73
2021/12/30 10:43:24;;;;;;;11.95;3.70;;;;;;;15.36;100.00;101374.88;5248356;28;20518;-73
2021/12/30 10:46:02;;;;;;;13.18;5.43;;;;;;;15.36;100.00;101377.50;5249149;28;20039;-73
2021/12/30 10:48:44;;;;;;;8.23;3.35;;;;;;;15.30;100.00;101377.13;5248239;28;20429;-73
2021/12/30 10:51:23;;;;;;;10.35;3.38;;;;;;;15.41;100.00;101378.72;5247992;28;20040;-73
2021/12/30 10:53:57;;;;;;;14.43;3.72;;;;;;;15.41;100.00;101372.59;5249105;28;20040;-74
2021/12/30 10:56:36;;;;;;;12.77;3.25;;;;;;;15.51;100.00;101368.09;5248447;28;20454;-73
2021/12/30 10:59:12;;;;;;;11.10;3.03;;;;;;;15.43;100.00;101378.59;5247508;28;20041;-74
2021/12/30 11:02:08;;;;;;;13.50;3.47;;;;;;;15.43;100.00;101373.31;5247059;28;20033;-73
2021/12/30 11:04:46;;;;;;;11.05;3.10;;;;;;;15.46;100.00;101370.38;5229760;28;20032;-74
2021/12/30 11:07:24;;;;;;;10.05;2.85;;;;;;;15.46;100.00;101368.56;5247971;28;20033;-73
2021/12/30 11:09:58;;;;;;;11.57;3.13;;;;;;;15.39;100.00;101372.75;5249349;28;20033;-73
2021/12/30 11:12:41;;;;;;;11.40;3.20;;;;;;;15.45;100.00;101366.03;5249471;28;20033;-73
2021/12/30 11:15:26;;;;;;;9.23;3.42;;;;;;;15.47;100.00;101379.94;5250565;28;20029;-74
2021/12/30 11:18:08;;;;;;;11.25;3.03;;;;;;;15.50;100.00;101377.84;5250636;28;20041;-73
2021/12/30 11:20:47;;;;;;;9.68;3.33;;;;;;;15.51;100.00;101368.09;5252771;28;20093;-74
2021/12/30 11:23:18;;;;;;;14.30;3.90;;;;;;;15.44;100.00;101369.66;5251555;28;20510;-73
2021/12/30 11:25:51;;;;;;;10.00;3.25;;;;;;;15.48;100.00;101371.03;5251685;28;20029;-74
2021/12/30 11:28:22;;;;;;;10.60;3.10;;;;;;;15.48;100.00;101360.47;5250364;28;20104;-73
2021/12/30 11:30:53;;;;;;;8.60;2.92;;;;;;;15.54;100.00;101367.81;5250909;28;20155;-73
2021/12/30 11:33:25;;;;;;;10.52;2.88;;;;;;;15.55;100.00;101354.44;5252525;28;20084;-74
2021/12/30 11:36:00;;;;;;;8.90;2.88;;;;;;;15.67;100.00;101365.66;5250994;28;20089;-73